createdAt,value
2022-08-21T00:00:42.329Z,2.83
2022-08-21T00:03:13.614Z,2.90
2022-08-21T00:55:37.833Z,4.18
2022-08-21T00:58:10.634Z,4.32
2022-08-21T01:04:25.964Z,5.10
2022-08-21T01:06:53.599Z,4.82
2022-08-21T03:40:46.715Z,6.95
2022-08-21T03:43:13.369Z,6.22
2022-08-21T03:45:40.367Z,6.93
2022-08-21T03:52:25.713Z,7.37
2022-08-21T05:57:49.195Z,4.30
2022-08-21T06:00:42.631Z,4.10
2022-08-21T06:03:19.411Z,4.37
2022-08-21T06:05:46.713Z,4.12
2022-08-21T06:08:14.437Z,4.28
2022-08-21T06:21:55.671Z,4.22
2022-08-21T10:24:44.106Z,4.60
2022-08-21T10:27:17.226Z,4.53
2022-08-21T11:16:43.389Z,5.15
2022-08-21T11:19:27.713Z,4.20
2022-08-21T11:22:09.924Z,5.07
2022-08-21T11:24:43.346Z,5.12
2022-08-21T11:27:37.491Z,4.87
2022-08-21T11:30:05.254Z,5.03
2022-08-21T11:32:50.360Z,4.85
2022-08-21T11:39:10.949Z,4.80
2022-08-21T11:41:44.428Z,4.97
2022-08-21T12:52:39.357Z,4.43
2022-08-21T12:55:08.708Z,5.00
2022-08-21T12:57:38.919Z,4.45
2022-08-21T13:46:49.719Z,7.43
2022-08-21T13:49:26.182Z,7.97
2022-08-21T13:54:39.204Z,6.90
2022-08-21T13:57:16.355Z,7.25
2022-08-21T13:59:42.985Z,7.25
2022-08-21T14:02:16.322Z,7.20
2022-08-21T14:08:06.651Z,6.55
2022-08-21T14:10:38.223Z,5.75
2022-08-21T14:13:07.824Z,3.30
2022-08-21T14:15:36.080Z,3.30
2022-08-21T14:18:16.793Z,3.33
2022-08-21T14:21:24.906Z,2.83
2022-08-21T14:24:10.927Z,3.15
2022-08-21T14:26:52.297Z,3.28
2022-08-21T14:29:23.253Z,2.87
2022-08-21T14:32:24.658Z,3.00
2022-08-21T14:35:29.874Z,2.65
2022-08-21T14:38:19.290Z,2.75
2022-08-21T14:40:49.640Z,2.80
2022-08-21T14:43:16.656Z,2.83
2022-08-21T14:45:44.794Z,2.47
2022-08-21T14:48:11.488Z,2.30
2022-08-21T14:50:38.314Z,2.42
2022-08-21T14:53:11.045Z,2.67
2022-08-21T14:55:58.176Z,2.90
2022-08-21T14:58:25.976Z,2.97
2022-08-21T15:00:54.971Z,2.40
2022-08-21T15:03:24.883Z,2.55
2022-08-21T15:05:52.130Z,2.50
2022-08-21T15:08:19.344Z,2.20
2022-08-21T15:11:09.971Z,2.20
2022-08-21T15:13:34.221Z,2.20
2022-08-21T15:16:01.030Z,2.17
2022-08-21T15:18:30.008Z,2.00
2022-08-21T15:20:57.388Z,2.10
2022-08-21T15:23:24.065Z,2.40
2022-08-21T15:25:51.615Z,1.92
2022-08-21T15:28:19.260Z,2.20
2022-08-21T15:30:47.289Z,2.28
2022-08-21T15:33:14.246Z,2.30
2022-08-21T15:35:41.279Z,2.08
2022-08-21T15:38:08.010Z,2.05
2022-08-21T15:40:39.214Z,1.90
2022-08-21T15:43:07.111Z,1.70
2022-08-21T15:45:34.648Z,1.77
2022-08-21T15:48:04.862Z,1.90
2022-08-21T15:50:34.177Z,1.90
2022-08-21T15:53:00.933Z,2.00
2022-08-21T15:55:27.679Z,2.30
2022-08-21T15:57:57.236Z,2.70
2022-08-21T16:00:25.367Z,2.50
2022-08-21T16:02:56.369Z,2.22
2022-08-21T16:05:23.664Z,2.25
2022-08-21T16:07:50.974Z,2.15
2022-08-21T16:10:21.246Z,2.10
2022-08-21T16:12:54.996Z,1.95
2022-08-21T16:15:22.454Z,2.28
2022-08-21T16:17:51.347Z,2.08
2022-08-21T16:20:22.354Z,2.25
2022-08-21T16:22:50.891Z,2.28
2022-08-21T16:25:18.712Z,2.35
2022-08-21T16:27:49.839Z,2.78
2022-08-21T16:30:18.340Z,2.53
2022-08-21T16:32:45.363Z,2.80
2022-08-21T16:35:15.258Z,2.15
2022-08-21T16:37:42.167Z,2.03
2022-08-21T16:40:10.629Z,2.53
2022-08-21T16:42:40.178Z,2.40
2022-08-21T16:45:12.154Z,2.53
2022-08-21T16:47:38.887Z,2.55
2022-08-21T16:50:07.425Z,2.95
2022-08-21T16:52:35.048Z,2.30
2022-08-21T16:55:02.071Z,2.62
2022-08-21T16:57:28.837Z,2.50
2022-08-21T16:59:55.583Z,2.55
2022-08-21T17:02:29.842Z,2.40
2022-08-21T17:04:56.543Z,2.30
2022-08-21T17:07:23.754Z,2.45
2022-08-21T17:09:50.567Z,2.35
2022-08-21T17:12:17.726Z,2.12
2022-08-21T17:14:44.471Z,2.30
2022-08-21T17:17:11.776Z,2.65
2022-08-21T17:19:38.516Z,2.42
2022-08-21T17:22:05.613Z,2.30
2022-08-21T17:24:32.306Z,2.30
2022-08-21T17:26:59.603Z,2.50
2022-08-21T17:29:31.356Z,2.28
2022-08-21T17:31:58.166Z,2.60
2022-08-21T17:34:26.199Z,2.22
2022-08-21T17:36:57.878Z,2.30
2022-08-21T17:39:26.549Z,2.17
2022-08-21T17:41:57.781Z,2.25
2022-08-21T17:44:25.387Z,2.25
2022-08-21T17:46:52.036Z,2.10
2022-08-21T17:49:18.796Z,2.42
2022-08-21T17:51:45.434Z,2.20
2022-08-21T17:54:12.094Z,2.15
2022-08-21T17:56:42.723Z,2.03
2022-08-21T17:59:10.676Z,1.60
2022-08-21T18:01:44.282Z,1.45
2022-08-21T18:04:11.499Z,1.58
2022-08-21T18:06:38.986Z,1.70
2022-08-21T18:09:07.199Z,1.70
2022-08-21T18:11:35.793Z,1.92
2022-08-21T18:14:07.552Z,1.70
2022-08-21T18:16:36.055Z,1.70
2022-08-21T18:19:07.482Z,1.77
2022-08-21T18:21:34.217Z,1.58
2022-08-21T18:24:01.097Z,1.83
2022-08-21T18:26:31.473Z,1.60
2022-08-21T18:29:00.605Z,1.75
2022-08-21T18:34:34.396Z,2.00
2022-08-21T18:37:11.947Z,2.10
2022-08-21T18:39:47.161Z,2.10
2022-08-21T18:45:00.785Z,2.08
2022-08-21T18:55:29.215Z,1.75
2022-08-21T19:05:48.265Z,1.77
2022-08-21T19:08:58.564Z,1.83
2022-08-21T19:11:25.130Z,1.65
2022-08-21T19:13:53.587Z,1.60
2022-08-21T19:21:31.102Z,1.40
2022-08-21T19:23:58.399Z,1.60
2022-08-21T19:26:32.376Z,1.58
2022-08-21T19:31:47.877Z,1.70
2022-08-21T19:34:25.431Z,1.50
2022-08-21T19:36:52.429Z,1.60
2022-08-21T19:39:21.635Z,1.40
2022-08-21T19:41:54.029Z,1.50
2022-08-21T19:44:24.755Z,1.65
2022-08-21T19:46:52.802Z,1.55
2022-08-21T19:49:24.314Z,1.65
2022-08-21T20:33:59.139Z,1.40
2022-08-21T20:36:25.927Z,1.40
2022-08-21T20:38:53.378Z,1.52
2022-08-21T20:41:31.002Z,1.50
2022-08-21T20:43:59.496Z,1.17
2022-08-21T20:46:28.111Z,1.35
2022-08-21T20:48:55.235Z,1.20
2022-08-21T20:51:30.625Z,1.30
2022-08-21T20:54:19.702Z,1.40
2022-08-21T20:57:13.624Z,1.20
2022-08-21T20:59:55.965Z,1.12
2022-08-21T21:05:06.332Z,1.42
2022-08-21T21:08:09.233Z,1.33
2022-08-21T21:10:48.053Z,1.30
2022-08-21T21:13:26.366Z,1.42
2022-08-21T21:15:58.890Z,1.70
2022-08-21T21:18:31.376Z,1.85
2022-08-21T21:26:08.791Z,2.03
2022-08-21T21:31:46.793Z,2.62
2022-08-21T21:34:28.734Z,2.12
2022-08-21T21:37:06.035Z,2.00
2022-08-21T21:39:53.045Z,2.47
2022-08-21T21:51:01.155Z,2.55
2022-08-21T21:53:52.753Z,2.70
2022-08-21T21:56:27.680Z,2.92
2022-08-21T21:59:33.494Z,3.20
2022-08-21T22:02:10.306Z,3.10
2022-08-21T22:05:03.912Z,3.03
2022-08-21T22:07:37.587Z,2.58
2022-08-21T22:10:20.030Z,3.17
2022-08-21T22:13:58.171Z,3.00
2022-08-21T22:16:25.040Z,3.05
2022-08-21T22:19:07.020Z,3.17
2022-08-21T22:21:43.217Z,3.33
2022-08-21T22:24:16.741Z,3.42
2022-08-21T22:26:49.657Z,2.78
2022-08-21T22:33:20.157Z,3.15
